KTDZ/TDZ METAR and TAF weather

Enter ICAO airport designator
Station Type Date Time Source
KTDZ METAR 2021/03/06 04:53 UTC NOAA

KTDZ 060453Z AUTO 30008KT 10SM CLR M01/M08 A3023 RMK AO2 SLP243 T10111083 400671072 $


Station Type Date Time Source
KTDZ Decoded METAR 2021/03/06 04:53 UTC NOAA

TOLEDO METCALF FIELD, OH, United States (KTDZ) 41-34N 83-29W 189M
Mar 05, 2021 - 11:53 PM EST / 2021.03.06 0453 UTC
Wind: from the WNW (300 degrees) at 9 MPH (8 KT):0
Visibility: 10 mile(s):0
Sky conditions: clear
Temperature: 30.0 F (-1.1 C)
Windchill: 21 F (-6 C):1
Dew Point: 17.1 F (-8.3 C)
Relative Humidity: 58%
Pressure (altimeter): 30.23 in. Hg (1023 hPa)
ob: KTDZ 060453Z AUTO 30008KT 10SM CLR M01/M08 A3023 RMK AO2 SLP243 T10111083 400671072
cycle: 5

Station Type Date Time Source
KTDZ TAF UTC NOAA

Error!

Example: see airport list